Time;durP1;ratioP1;P1;durP2;ratioP2;P2;SDS_P1;SDS_P2;PMS_P1;PMS_P2;Temp;Humidity;BMP_temperature;BMP_pressure;BME280_temperature;BME280_humidity;BME280_pressure;Samples;Min_cycle;Max_cycle;Signal;HPM_P1;HPM_P2
2023/07/05 00:01:14;;;;;;;8.38;4.55;;;;;;;26.50;45.63;100904.41;4875388;28;20051;-80
2023/07/05 00:03:41;;;;;;;9.10;4.80;;;;;;;26.58;44.41;100909.53;4870703;29;20442;-80
2023/07/05 00:06:08;;;;;;;10.02;5.45;;;;;;;26.30;44.44;100868.53;4881634;28;20474;-80
2023/07/05 00:08:40;;;;;;;16.90;5.25;;;;;;;26.51;44.33;100910.69;4846027;29;20139;-81
2023/07/05 00:11:19;;;;;;;12.30;4.63;;;;;;;26.20;43.98;100850.06;4843806;29;20058;-82
2023/07/05 00:13:53;;;;;;;12.25;4.45;;;;;;;26.46;43.61;100878.72;4855259;29;20078;-80
2023/07/05 00:16:24;;;;;;;8.75;4.68;;;;;;;26.53;43.69;100913.97;4852449;29;20051;-82
2023/07/05 00:18:56;;;;;;;7.82;4.40;;;;;;;26.40;44.46;100896.81;4868765;29;20048;-81
2023/07/05 00:21:25;;;;;;;7.70;4.95;;;;;;;26.26;44.44;100881.75;4865634;29;20662;-82
2023/07/05 00:23:56;;;;;;;8.07;4.07;;;;;;;26.18;44.47;100861.16;4869561;29;20147;-81
2023/07/05 00:26:28;;;;;;;12.23;5.15;;;;;;;26.34;44.30;100867.00;4868895;29;20629;-82
2023/07/05 00:29:09;;;;;;;11.80;4.80;;;;;;;26.48;44.18;100895.63;4866936;29;20539;-82
2023/07/05 00:31:44;;;;;;;9.63;4.95;;;;;;;26.28;44.37;100873.38;4879229;29;20312;-82
2023/07/05 00:34:20;;;;;;;12.88;5.13;;;;;;;26.30;44.49;100877.50;4878268;29;20125;-81
2023/07/05 00:36:51;;;;;;;10.13;4.93;;;;;;;26.28;45.55;100889.69;4884136;29;20792;-81
2023/07/05 00:39:27;;;;;;;8.48;5.63;;;;;;;26.22;45.83;100880.59;4897469;28;20465;-82
2023/07/05 00:41:55;;;;;;;12.05;5.70;;;;;;;26.12;46.58;100881.16;4902730;28;20246;-79
2023/07/05 00:44:22;;;;;;;8.27;5.35;;;;;;;26.10;46.61;100872.38;4878159;29;20118;-80
2023/07/05 00:46:58;;;;;;;10.68;4.68;;;;;;;25.99;46.08;100859.56;4903530;28;20055;-82
2023/07/05 00:49:27;;;;;;;10.95;5.40;;;;;;;26.06;46.51;100878.53;4885653;29;20050;-81
2023/07/05 00:52:03;;;;;;;8.48;4.97;;;;;;;25.87;46.50;100873.13;4896933;28;20079;-82
2023/07/05 00:54:35;;;;;;;9.68;5.25;;;;;;;25.85;46.86;100869.81;4881019;29;20109;-82
2023/07/05 00:57:15;;;;;;;7.95;4.53;;;;;;;25.83;45.17;100860.19;4886144;29;20843;-83
2023/07/05 01:00:03;;;;;;;10.30;4.80;;;;;;;26.05;44.97;100885.88;4897172;28;20051;-81
2023/07/05 01:02:39;;;;;;;10.23;5.68;;;;;;;25.97;46.19;100897.06;4878195;29;20242;-82
2023/07/05 01:05:11;;;;;;;14.80;5.57;;;;;;;25.65;46.33;100853.75;4864606;29;20170;-81
2023/07/05 01:07:39;;;;;;;;;;;;;;;25.70;46.15;100889.22;4862151;28;20044;-80
2023/07/05 01:10:18;;;;;;;9.65;5.05;;;;;;;25.40;46.70;100850.34;4877628;29;20355;-81
2023/07/05 01:13:01;;;;;;;9.38;5.88;;;;;;;25.52;47.12;100864.81;4880578;29;20363;-81
2023/07/05 01:15:43;;;;;;;11.45;5.05;;;;;;;25.54;46.97;100840.97;4876296;29;20062;-83
2023/07/05 01:18:24;;;;;;;9.30;5.90;;;;;;;25.70;47.35;100882.97;4866236;29;20056;-81
2023/07/05 01:21:28;;;;;;;13.07;5.75;;;;;;;25.58;47.55;100874.75;4881255;29;20488;-81
2023/07/05 01:24:18;;;;;;;13.05;6.22;;;;;;;25.62;47.86;100875.97;4870131;29;20480;-79
2023/07/05 01:27:10;;;;;;;9.90;5.47;;;;;;;25.66;47.52;100877.19;4871872;29;20500;-79
2023/07/05 01:30:22;;;;;;;10.52;5.82;;;;;;;25.54;46.77;100855.38;4869903;29;20372;-82
2023/07/05 01:33:03;;;;;;;16.00;5.57;;;;;;;25.58;46.94;100866.59;4900747;28;20548;-81
2023/07/05 01:35:40;;;;;;;12.13;5.18;;;;;;;25.70;47.01;100883.78;4869606;29;20073;-81
2023/07/05 01:38:09;;;;;;;12.45;5.72;;;;;;;25.33;46.75;100840.38;4896299;28;20264;-81
2023/07/05 01:40:46;;;;;;;16.10;6.15;;;;;;;25.65;46.62;100891.81;4883204;29;20679;-82
2023/07/05 01:43:20;;;;;;;9.23;4.72;;;;;;;25.64;45.34;100852.09;4895852;28;20573;-80
2023/07/05 01:45:59;;;;;;;13.77;5.82;;;;;;;25.96;45.46;100887.25;4882991;29;20541;-82
2023/07/05 01:48:56;;;;;;;13.60;5.75;;;;;;;25.89;44.97;100883.78;4881227;29;20366;-80
2023/07/05 01:51:54;;;;;;;11.00;5.55;;;;;;;25.86;45.97;100879.66;4887491;29;20095;-82
2023/07/05 01:54:42;;;;;;;11.85;5.55;;;;;;;25.63;46.49;100860.47;4880106;29;20055;-80
2023/07/05 01:57:31;;;;;;;14.13;6.65;;;;;;;25.47;46.97;100853.81;4905703;28;20494;-81
2023/07/05 02:00:23;;;;;;;11.68;6.13;;;;;;;25.35;47.36;100854.56;4882438;29;20131;-81
2023/07/05 02:03:01;;;;;;;9.88;5.90;;;;;;;25.56;47.58;100883.16;4879646;29;20138;-82
2023/07/05 02:05:30;;;;;;;13.40;6.03;;;;;;;25.50;47.61;100878.63;4906769;29;20532;-81
2023/07/05 02:07:59;;;;;;;12.43;6.32;;;;;;;25.45;47.83;100881.19;4927848;29;20410;-82
2023/07/05 02:10:27;;;;;;;12.98;6.45;;;;;;;25.50;47.57;100884.06;4928812;28;20478;-81
2023/07/05 02:12:54;;;;;;;12.70;6.22;;;;;;;25.42;48.15;100887.09;4935284;29;20051;-80
2023/07/05 02:15:22;;;;;;;18.02;7.13;;;;;;;24.94;48.53;100809.88;4934026;29;20447;-82
2023/07/05 02:17:48;;;;;;;13.98;6.68;;;;;;;25.35;48.43;100864.59;4931773;29;20055;-80
2023/07/05 02:20:15;;;;;;;15.57;7.07;;;;;;;25.49;48.90;100884.31;4927600;29;20047;-82
2023/07/05 02:22:42;;;;;;;14.30;7.05;;;;;;;25.16;48.59;100815.69;4928765;28;20158;-80
2023/07/05 02:25:09;;;;;;;15.00;6.93;;;;;;;25.41;48.58;100860.13;4926873;29;20126;-82
2023/07/05 02:27:37;;;;;;;12.60;6.88;;;;;;;25.31;49.02;100858.78;4926937;28;20130;-81
2023/07/05 02:30:05;;;;;;;11.88;7.78;;;;;;;25.45;48.93;100874.94;4912716;28;20382;-81
2023/07/05 02:32:36;;;;;;;13.48;6.43;;;;;;;24.97;49.07;100816.75;4878930;29;20527;-82
2023/07/05 02:35:04;;;;;;;12.35;6.22;;;;;;;25.06;49.29;100833.56;4919499;29;20081;-82
2023/07/05 02:37:32;;;;;;;15.68;7.05;;;;;;;25.30;49.20;100884.31;4926069;29;20047;-83
2023/07/05 02:39:59;;;;;;;12.40;6.88;;;;;;;24.71;49.21;100783.41;4928038;29;20062;-81
2023/07/05 02:42:26;;;;;;;12.02;6.65;;;;;;;25.21;49.48;100873.97;4929726;29;20139;-81
2023/07/05 02:44:55;;;;;;;19.90;6.90;;;;;;;24.97;49.09;100814.03;4918606;29;20043;-82
2023/07/05 02:47:22;;;;;;;11.90;6.50;;;;;;;25.22;49.13;100865.59;4922021;29;20516;-81
2023/07/05 02:49:50;;;;;;;12.93;6.22;;;;;;;25.30;49.11;100892.47;4934684;28;20493;-81
2023/07/05 02:52:18;;;;;;;14.48;6.00;;;;;;;24.68;49.01;100799.31;4918810;28;20141;-81
2023/07/05 02:54:49;;;;;;;11.60;6.68;;;;;;;25.19;48.89;100868.75;4887310;28;20252;-81
2023/07/05 02:57:22;;;;;;;14.15;6.45;;;;;;;25.21;49.47;100907.41;4911748;29;20082;-82
2023/07/05 02:59:51;;;;;;;12.82;6.63;;;;;;;25.09;49.28;100890.16;4927435;29;20551;-81
2023/07/05 03:02:18;;;;;;;11.23;6.07;;;;;;;24.98;49.89;100869.16;4928376;29;20055;-81
2023/07/05 03:04:47;;;;;;;10.43;7.00;;;;;;;25.09;50.14;100903.75;4920730;28;20086;-82
2023/07/05 03:07:21;;;;;;;11.63;6.28;;;;;;;25.04;49.92;100907.13;4921753;29;20495;-81
2023/07/05 03:09:52;;;;;;;13.18;7.15;;;;;;;24.95;49.88;100894.88;4923793;29;20105;-83
2023/07/05 03:12:22;;;;;;;12.52;7.03;;;;;;;24.88;50.33;100897.69;4929489;29;20055;-79
2023/07/05 03:14:49;;;;;;;10.95;5.85;;;;;;;24.99;50.32;100925.16;4924059;29;20357;-82
2023/07/05 03:17:15;;;;;;;13.10;6.70;;;;;;;24.98;50.17;100927.06;4930795;29;20305;-81
2023/07/05 03:19:42;;;;;;;10.23;6.07;;;;;;;24.62;50.49;100879.75;4928696;28;20392;-82
2023/07/05 03:22:09;;;;;;;10.55;6.55;;;;;;;25.01;50.13;100933.91;4921103;28;20210;-80
2023/07/05 03:24:35;;;;;;;10.90;6.38;;;;;;;24.82;50.31;100917.56;4902574;29;20118;-81
2023/07/05 03:27:02;;;;;;;12.55;5.97;;;;;;;24.79;50.44;100926.19;4914379;29;20441;-81
2023/07/05 03:29:33;;;;;;;19.10;6.97;;;;;;;24.64;50.16;100920.25;4912288;29;20297;-81
2023/07/05 03:32:07;;;;;;;16.30;6.38;;;;;;;24.63;50.39;100926.72;4895367;28;20154;-81
2023/07/05 03:34:33;;;;;;;18.02;6.68;;;;;;;24.87;50.02;100952.22;4884862;28;20050;-81
2023/07/05 03:37:03;;;;;;;10.30;6.25;;;;;;;24.90;49.85;100976.19;4881796;28;20516;-83
2023/07/05 03:39:30;;;;;;;12.07;6.25;;;;;;;24.70;50.19;100960.91;4897150;29;20829;-80
2023/07/05 03:41:57;;;;;;;13.52;7.00;;;;;;;24.83;50.50;100975.41;4920096;29;20056;-82
2023/07/05 03:44:31;;;;;;;13.93;7.15;;;;;;;24.80;50.60;100986.72;4918817;28;20059;-80
2023/07/05 03:46:57;;;;;;;16.67;7.25;;;;;;;24.36;50.87;100924.19;4926480;28;20051;-80
2023/07/05 03:49:24;;;;;;;13.15;6.45;;;;;;;24.31;50.87;100924.00;4916085;29;20051;-80
2023/07/05 03:51:51;;;;;;;12.45;7.13;;;;;;;24.58;51.23;100978.13;4898619;29;20056;-81
2023/07/05 03:54:19;;;;;;;16.67;7.18;;;;;;;24.58;51.68;100978.13;4897182;29;20057;-80
2023/07/05 03:56:49;;;;;;;12.70;7.55;;;;;;;24.62;51.85;100999.19;4915157;29;20070;-80
2023/07/05 03:59:16;;;;;;;17.48;7.22;;;;;;;24.71;52.14;101021.44;4928854;28;20047;-79
2023/07/05 04:01:45;;;;;;;12.68;6.82;;;;;;;24.73;52.37;101024.78;4928845;28;20050;-81
2023/07/05 04:04:12;;;;;;;10.52;6.82;;;;;;;24.68;52.42;101024.59;4945192;28;20082;-80
2023/07/05 04:06:38;;;;;;;16.05;6.95;;;;;;;24.38;52.57;100970.94;4918233;29;20053;-80
2023/07/05 04:09:05;;;;;;;13.18;7.80;;;;;;;24.57;52.69;100998.19;4923390;28;20055;-80
2023/07/05 04:11:34;;;;;;;16.65;7.95;;;;;;;23.98;52.83;100906.09;4931183;28;20054;-80
2023/07/05 04:14:03;;;;;;;13.75;8.02;;;;;;;24.62;53.00;101018.19;4927866;28;20053;-81
2023/07/05 04:16:30;;;;;;;16.83;7.50;;;;;;;24.29;53.44;100981.19;4942164;28;20047;-80
2023/07/05 04:18:57;;;;;;;24.25;9.27;;;;;;;24.59;54.21;101039.50;4908946;29;20131;-80
2023/07/05 04:21:25;;;;;;;18.63;8.82;;;;;;;24.46;54.73;101040.41;4916275;28;20058;-81
2023/07/05 04:23:57;;;;;;;18.70;9.70;;;;;;;24.27;55.37;101025.88;4946063;28;20051;-81
2023/07/05 04:26:26;;;;;;;20.77;9.45;;;;;;;24.36;55.87;101057.13;4943250;28;20054;-80
2023/07/05 04:29:00;;;;;;;19.33;9.52;;;;;;;24.39;55.89;101062.13;4933968;28;20051;-81
2023/07/05 04:31:29;;;;;;;19.85;9.90;;;;;;;24.16;55.96;101035.53;4928290;28;20137;-81
2023/07/05 04:33:57;;;;;;;22.38;10.68;;;;;;;24.02;56.62;101037.47;4884943;29;20047;-80
2023/07/05 04:36:30;;;;;;;16.40;10.23;;;;;;;24.09;56.90;101073.53;4883769;29;20086;-79
2023/07/05 04:39:01;;;;;;;20.48;10.52;;;;;;;24.18;56.96;101065.16;4898604;28;20220;-80
2023/07/05 04:41:31;;;;;;;17.70;9.82;;;;;;;23.50;57.54;100987.78;4919086;28;20269;-80
2023/07/05 04:43:58;;;;;;;23.23;10.15;;;;;;;23.83;58.01;101079.03;4942597;28;20051;-80
2023/07/05 04:46:24;;;;;;;17.63;10.68;;;;;;;23.15;58.17;100973.66;4944740;28;20051;-81
2023/07/05 04:48:52;;;;;;;25.40;11.00;;;;;;;23.68;58.86;101080.06;4945233;28;20050;-80
2023/07/05 04:51:21;;;;;;;20.80;11.25;;;;;;;23.34;59.32;101015.31;4927557;28;20525;-81
2023/07/05 04:53:50;;;;;;;20.35;11.15;;;;;;;23.51;59.87;101042.78;4942778;28;20576;-81
2023/07/05 04:56:23;;;;;;;24.75;11.93;;;;;;;23.54;61.11;101064.03;4924168;28;20043;-82
2023/07/05 04:58:50;;;;;;;21.10;11.95;;;;;;;23.48;61.57;101060.31;4914550;28;20062;-79
2023/07/05 05:01:22;;;;;;;20.05;12.70;;;;;;;23.79;62.64;101113.06;4895140;28;20097;-79
2023/07/05 05:03:53;;;;;;;22.77;11.50;;;;;;;23.81;63.12;101113.66;4935346;28;20336;-81
2023/07/05 05:06:20;;;;;;;25.25;11.63;;;;;;;23.18;62.95;100993.06;4925915;29;20054;-81
2023/07/05 05:08:52;;;;;;;17.65;10.68;;;;;;;23.90;62.61;101112.38;4920801;28;20113;-81
2023/07/05 05:11:19;;;;;;;17.05;10.55;;;;;;;23.24;62.73;101008.44;4930537;28;20120;-81
2023/07/05 05:13:45;;;;;;;21.17;10.65;;;;;;;23.87;62.99;101112.81;4951852;28;20172;-82
2023/07/05 05:16:12;;;;;;;22.80;9.27;;;;;;;23.91;62.48;101116.78;4942265;28;20061;-82
2023/07/05 05:18:39;;;;;;;16.25;9.45;;;;;;;23.34;62.08;101031.56;4907620;29;20102;-79
2023/07/05 05:21:06;;;;;;;14.95;8.55;;;;;;;23.61;62.16;101081.94;4919413;28;20066;-80
2023/07/05 05:23:33;;;;;;;12.55;7.85;;;;;;;23.69;61.81;101097.19;4942283;28;20062;-81
2023/07/05 05:25:59;;;;;;;11.23;6.72;;;;;;;23.10;61.29;100998.66;4963248;28;20523;-83
2023/07/05 05:28:26;;;;;;;15.07;6.65;;;;;;;23.90;60.78;101128.66;4928026;28;20050;-81
2023/07/05 05:31:04;;;;;;;10.95;6.18;;;;;;;23.86;60.45;101111.97;4923315;28;20051;-82
2023/07/05 05:33:31;;;;;;;11.35;6.28;;;;;;;23.91;60.20;101119.50;4948130;28;20054;-80
2023/07/05 05:35:59;;;;;;;12.05;7.88;;;;;;;24.02;59.94;101135.09;4922282;29;20047;-80
2023/07/05 05:38:29;;;;;;;12.10;7.78;;;;;;;24.08;59.78;101117.16;4911515;29;20043;-78
2023/07/05 05:41:12;;;;;;;12.93;7.97;;;;;;;24.18;60.33;101135.69;4911397;29;20051;-79
2023/07/05 05:43:38;;;;;;;18.95;7.65;;;;;;;24.10;60.94;101134.88;4910253;29;20043;-78
2023/07/05 05:46:06;;;;;;;16.58;7.65;;;;;;;24.24;60.31;101140.25;4927738;28;20268;-80
2023/07/05 05:48:33;;;;;;;15.77;7.38;;;;;;;24.29;60.11;101132.28;4902601;28;20053;-78
2023/07/05 05:51:00;;;;;;;12.50;7.95;;;;;;;24.23;59.77;101114.19;4931085;28;20420;-79
2023/07/05 05:53:27;;;;;;;12.20;5.82;;;;;;;24.22;59.68;101120.63;4945561;28;20299;-79
2023/07/05 05:55:56;;;;;;;12.88;6.10;;;;;;;23.63;59.35;101012.13;4930175;28;20046;-82
2023/07/05 05:58:26;;;;;;;16.80;6.30;;;;;;;24.43;59.34;101139.34;4938335;28;20050;-83
2023/07/05 06:00:54;;;;;;;11.35;6.70;;;;;;;24.52;58.64;101129.94;4923519;28;20183;-82
2023/07/05 06:03:24;;;;;;;11.05;7.07;;;;;;;23.85;57.91;100995.63;4924587;28;20546;-82
2023/07/05 06:05:54;;;;;;;11.68;6.68;;;;;;;23.82;57.89;100974.38;4935622;28;20050;-80
2023/07/05 06:08:27;;;;;;;13.60;6.30;;;;;;;24.59;57.91;101096.50;4927133;28;20043;-82
2023/07/05 06:10:56;;;;;;;11.60;5.68;;;;;;;24.76;57.82;101116.69;4929229;28;20507;-81
2023/07/05 06:13:27;;;;;;;13.27;5.65;;;;;;;24.15;57.02;101008.63;4925347;28;20059;-81
2023/07/05 06:15:58;;;;;;;7.78;4.70;;;;;;;24.02;56.67;100994.06;4931431;28;20218;-80
2023/07/05 06:18:45;;;;;;;13.13;4.75;;;;;;;24.34;56.53;101029.38;4946539;28;20459;-83
2023/07/05 06:21:14;;;;;;;12.75;5.70;;;;;;;24.56;55.63;101032.63;4932794;28;20129;-83
2023/07/05 06:23:44;;;;;;;10.82;5.13;;;;;;;25.09;55.43;101126.47;4932389;28;20082;-80
2023/07/05 06:26:10;;;;;;;12.55;5.43;;;;;;;25.16;55.82;101138.13;4924744;28;20058;-82
2023/07/05 06:28:37;;;;;;;8.63;4.22;;;;;;;24.92;55.88;101091.69;4946729;28;20480;-81
2023/07/05 06:31:06;;;;;;;15.18;4.82;;;;;;;25.13;55.03;101095.09;4947868;28;20047;-81
2023/07/05 06:33:33;;;;;;;9.77;4.22;;;;;;;25.15;54.69;101096.56;4935739;28;20075;-81
2023/07/05 06:36:05;;;;;;;6.55;4.13;;;;;;;25.23;54.68;101100.91;4928530;28;20416;-81
2023/07/05 06:38:33;;;;;;;9.18;4.63;;;;;;;25.25;54.29;101125.16;4924350;28;20124;-80
2023/07/05 06:41:00;;;;;;;7.05;4.65;;;;;;;25.36;54.37;101138.00;4913977;28;20496;-81
2023/07/05 06:43:30;;;;;;;9.90;4.80;;;;;;;25.43;54.51;101146.09;4902138;28;20064;-83
2023/07/05 06:46:01;;;;;;;8.82;4.07;;;;;;;25.25;53.88;101098.81;4941851;28;20054;-80
2023/07/05 06:48:29;;;;;;;7.47;4.13;;;;;;;25.28;53.47;101098.34;4918605;28;20046;-82
2023/07/05 06:50:58;;;;;;;8.60;4.00;;;;;;;25.46;53.52;101132.88;4942968;28;20141;-81
2023/07/05 06:53:26;;;;;;;;;;;;;;;25.47;54.40;101139.19;4925586;28;20137;-81
2023/07/05 06:56:04;;;;;;;7.68;4.28;;;;;;;25.70;53.18;101125.78;4931373;28;19926;-81
2023/07/05 06:58:31;;;;;;;9.23;3.92;;;;;;;25.87;52.61;101139.66;4939481;28;20521;-81
2023/07/05 07:01:04;;;;;;;7.53;3.85;;;;;;;25.85;52.35;101119.16;4927525;28;20054;-81
2023/07/05 07:03:31;;;;;;;5.70;3.42;;;;;;;25.88;52.65;101114.13;4894519;28;20208;-81
2023/07/05 07:06:00;;;;;;;6.22;4.25;;;;;;;25.95;51.96;101097.75;4924687;28;20736;-82
2023/07/05 07:08:35;;;;;;;7.68;3.90;;;;;;;26.07;51.68;101101.38;4932275;28;20113;-81
2023/07/05 07:11:06;;;;;;;10.70;4.60;;;;;;;26.38;51.66;101134.91;4897561;28;20475;-81
2023/07/05 07:13:36;;;;;;;6.75;4.07;;;;;;;25.25;51.34;100940.41;4903036;28;20481;-81
2023/07/05 07:16:05;;;;;;;;;;;;;;;26.43;51.36;101140.50;4901341;29;20050;-80
2023/07/05 07:18:37;;;;;;;7.85;4.20;;;;;;;26.37;51.16;101100.59;4903725;29;19930;-81
2023/07/05 07:21:11;;;;;;;6.80;3.38;;;;;;;26.57;49.40;101111.25;4913298;29;20110;-79
2023/07/05 07:23:39;;;;;;;10.73;4.50;;;;;;;26.21;50.76;101091.16;4906349;29;20577;-79
2023/07/05 07:26:11;;;;;;;6.18;4.25;;;;;;;26.58;50.83;101138.25;4923522;28;20102;-82
2023/07/05 07:28:39;;;;;;;6.43;4.40;;;;;;;26.38;50.79;101080.47;4923119;28;20054;-81
2023/07/05 07:31:19;;;;;;;7.90;4.32;;;;;;;26.57;50.83;101095.72;4929538;28;20066;-80
2023/07/05 07:33:48;;;;;;;6.20;4.00;;;;;;;26.54;50.73;101068.97;4924943;28;20404;-81
2023/07/05 07:36:18;;;;;;;8.43;3.88;;;;;;;26.88;50.18;101102.00;4925506;29;20260;-81
2023/07/05 07:38:45;;;;;;;10.63;4.47;;;;;;;26.81;49.46;101084.94;4926002;28;20047;-79
2023/07/05 07:41:27;;;;;;;7.15;4.00;;;;;;;26.90;49.40;101105.31;4922056;28;20058;-81
2023/07/05 07:43:59;;;;;;;8.63;4.18;;;;;;;26.73;49.33;101077.09;4917871;28;20043;-82
2023/07/05 07:46:29;;;;;;;9.32;4.22;;;;;;;27.05;49.39;101119.34;4942878;28;20055;-81
2023/07/05 07:48:59;;;;;;;10.50;3.97;;;;;;;27.05;49.06;101103.00;4918130;28;20046;-83
2023/07/05 07:51:28;;;;;;;9.77;4.25;;;;;;;26.80;49.43;101066.94;4930047;28;20500;-82
2023/07/05 07:53:59;;;;;;;8.43;4.07;;;;;;;27.04;48.96;101082.28;4923789;28;20109;-81
2023/07/05 07:56:32;;;;;;;9.27;3.97;;;;;;;27.12;49.57;101097.44;4921669;28;20057;-82
2023/07/05 07:59:00;;;;;;;10.20;4.55;;;;;;;27.16;49.64;101108.69;4919117;28;20291;-79
2023/07/05 08:01:33;;;;;;;6.80;4.18;;;;;;;27.21;49.84;101117.03;4939002;28;20050;-81
2023/07/05 08:04:06;;;;;;;11.73;4.97;;;;;;;26.96;50.01;101057.25;4942584;28;20254;-80
2023/07/05 08:06:39;;;;;;;7.57;4.68;;;;;;;27.05;49.23;101048.50;4937387;28;20066;-82
2023/07/05 08:09:13;;;;;;;6.45;4.38;;;;;;;27.35;49.67;101088.47;4920359;28;20054;-80
2023/07/05 08:11:40;;;;;;;9.15;4.50;;;;;;;27.43;49.15;101098.19;4911172;28;20057;-82
2023/07/05 08:14:08;;;;;;;9.18;4.72;;;;;;;27.21;48.74;101052.47;4922840;28;20090;-82
2023/07/05 08:16:36;;;;;;;6.55;4.00;;;;;;;27.59;49.49;101111.13;4924884;28;20059;-80
2023/07/05 08:19:06;;;;;;;6.53;4.35;;;;;;;27.30;49.54;101063.00;4930030;28;20047;-81
2023/07/05 08:21:33;;;;;;;9.38;5.22;;;;;;;27.32;49.63;101085.41;4923536;28;20110;-83
2023/07/05 08:24:04;;;;;;;10.60;5.25;;;;;;;27.68;49.73;101117.88;4919968;28;20131;-83
2023/07/05 08:26:53;;;;;;;7.22;4.90;;;;;;;27.33;49.56;101043.44;4911928;28;20055;-80
2023/07/05 08:29:21;;;;;;;9.68;4.90;;;;;;;27.74;49.54;101110.66;4917571;28;20348;-81
2023/07/05 08:31:48;;;;;;;7.93;5.93;;;;;;;27.79;49.72;101107.22;4916306;28;20356;-82
2023/07/05 08:34:15;;;;;;;9.80;6.22;;;;;;;27.60;49.25;101052.81;4922815;28;20113;-82
2023/07/05 08:36:42;;;;;;;13.00;4.85;;;;;;;28.04;48.88;101102.34;4913562;28;20065;-82
2023/07/05 08:39:18;;;;;;;6.55;4.68;;;;;;;28.07;49.11;101114.69;4876347;28;20597;-83
2023/07/05 08:42:08;;;;;;;8.20;4.72;;;;;;;27.91;49.26;101094.41;4909157;28;20057;-82
2023/07/05 08:44:54;;;;;;;7.68;4.97;;;;;;;28.05;49.12;101109.44;4919062;28;20452;-83
2023/07/05 08:47:49;;;;;;;9.40;5.70;;;;;;;28.09;49.55;101102.47;4906548;28;20121;-82
2023/07/05 08:50:35;;;;;;;9.85;5.72;;;;;;;28.23;49.00;101094.84;4911463;28;20285;-83
2023/07/05 08:53:18;;;;;;;8.60;5.30;;;;;;;28.11;48.70;101061.28;4906874;28;20264;-83
2023/07/05 08:55:55;;;;;;;13.32;5.97;;;;;;;28.26;48.56;101077.97;4875062;28;20236;-83
2023/07/05 08:58:46;;;;;;;13.13;7.28;;;;;;;28.12;48.53;101041.09;4915105;28;20058;-81
2023/07/05 09:01:23;;;;;;;7.95;5.45;;;;;;;27.88;49.16;101016.59;4909587;28;20046;-82
2023/07/05 09:03:51;;;;;;;8.63;5.68;;;;;;;28.36;48.73;101063.69;4920291;28;20066;-82
2023/07/05 09:06:38;;;;;;;10.35;5.65;;;;;;;28.61;48.59;101092.56;4889000;28;20338;-83
2023/07/05 09:09:49;;;;;;;8.18;5.80;;;;;;;28.83;48.67;101095.44;4883602;28;20128;-83
2023/07/05 09:12:49;;;;;;;11.45;5.55;;;;;;;28.92;48.32;101105.72;4922605;28;20058;-82
2023/07/05 09:15:23;;;;;;;9.90;5.65;;;;;;;28.88;48.17;101099.06;4914871;28;20134;-80
2023/07/05 09:18:01;;;;;;;7.38;5.32;;;;;;;28.23;48.66;100999.28;4919860;28;20047;-79
2023/07/05 09:20:36;;;;;;;6.28;5.50;;;;;;;28.96;48.54;101095.13;4939961;28;20093;-81
2023/07/05 09:23:10;;;;;;;9.63;6.32;;;;;;;28.99;48.78;101089.16;4907989;29;20522;-80
2023/07/05 09:25:44;;;;;;;8.23;5.72;;;;;;;28.91;48.93;101086.81;4885857;29;20086;-81
2023/07/05 09:28:27;;;;;;;9.00;6.72;;;;;;;29.04;48.90;101075.59;4891337;29;20497;-80
2023/07/05 09:30:54;;;;;;;10.70;6.20;;;;;;;28.75;48.52;101011.97;4897064;28;20057;-80
2023/07/05 09:33:32;;;;;;;9.60;6.60;;;;;;;29.07;48.75;101058.72;4913277;28;20133;-80
2023/07/05 09:36:10;;;;;;;9.05;5.70;;;;;;;29.18;48.68;101060.53;4912018;29;20054;-82
2023/07/05 09:38:43;;;;;;;10.65;6.63;;;;;;;29.39;48.78;101066.31;4925510;29;20494;-81
2023/07/05 09:41:19;;;;;;;10.25;6.38;;;;;;;29.49;48.37;101055.53;4931164;28;20047;-82
2023/07/05 09:43:45;;;;;;;12.35;6.70;;;;;;;29.55;48.09;101068.19;4931457;28;20072;-80
2023/07/05 09:46:30;;;;;;;10.88;6.07;;;;;;;29.36;48.10;101014.88;4908092;28;20138;-80
2023/07/05 09:48:57;;;;;;;11.77;6.22;;;;;;;29.67;47.94;101050.88;4924837;28;20052;-79
2023/07/05 09:51:23;;;;;;;10.02;6.65;;;;;;;29.54;47.71;101022.78;4930785;28;20066;-82
2023/07/05 09:53:59;;;;;;;9.07;6.35;;;;;;;29.81;47.39;101057.66;4927593;28;20527;-81
2023/07/05 09:56:28;;;;;;;7.10;6.10;;;;;;;29.75;47.43;101034.03;4929255;28;20510;-83
2023/07/05 09:59:15;;;;;;;8.15;7.22;;;;;;;30.12;46.27;101061.56;4948625;28;20796;-82
2023/07/05 10:01:50;;;;;;;9.70;6.43;;;;;;;30.12;46.31;101058.00;4955928;28;20055;-81
2023/07/05 10:04:18;;;;;;;12.13;6.25;;;;;;;30.03;46.80;101027.53;4889890;29;20096;-82
2023/07/05 10:07:00;;;;;;;10.63;6.68;;;;;;;30.13;46.61;101029.56;4890355;28;20244;-82
2023/07/05 10:09:54;;;;;;;14.15;6.07;;;;;;;30.45;45.52;101057.03;4863254;29;20052;-82
2023/07/05 10:12:27;;;;;;;8.85;6.57;;;;;;;30.53;44.94;101059.31;4911740;29;20047;-81
2023/07/05 10:15:01;;;;;;;8.15;5.68;;;;;;;29.91;44.24;100986.63;4903759;29;20051;-82
2023/07/05 10:17:45;;;;;;;10.02;6.30;;;;;;;30.41;45.53;101050.41;4916707;29;20427;-82
2023/07/05 10:20:29;;;;;;;7.50;5.93;;;;;;;30.43;44.02;101007.16;4890260;29;20194;-81
2023/07/05 10:23:23;;;;;;;9.98;5.68;;;;;;;30.35;43.03;100975.59;4911345;29;20144;-82
2023/07/05 10:25:57;;;;;;;8.93;5.72;;;;;;;30.91;42.14;101043.81;4904036;29;20058;-82
2023/07/05 10:28:29;;;;;;;11.82;6.30;;;;;;;30.97;43.24;101044.66;4905860;29;20287;-80
2023/07/05 10:30:59;;;;;;;9.02;6.07;;;;;;;30.68;43.24;100957.25;4908930;28;20417;-81
2023/07/05 10:33:29;;;;;;;8.20;6.22;;;;;;;31.37;42.62;101051.53;4895558;28;20073;-82
2023/07/05 10:36:05;;;;;;;13.63;6.15;;;;;;;31.42;41.36;101048.88;4883822;29;20051;-81
2023/07/05 10:38:42;;;;;;;14.05;8.32;;;;;;;31.25;41.15;100997.72;4915134;29;20051;-83
2023/07/05 10:41:26;;;;;;;14.73;6.70;;;;;;;31.44;40.53;101024.75;4898496;29;20059;-81
2023/07/05 10:44:04;;;;;;;11.55;6.28;;;;;;;31.66;40.74;101019.09;4912133;29;20435;-81
2023/07/05 10:46:37;;;;;;;10.60;6.43;;;;;;;31.67;40.33;100985.88;4902580;29;20056;-82
2023/07/05 10:49:16;;;;;;;9.95;7.32;;;;;;;32.08;41.20;101029.97;4865930;29;20296;-83
2023/07/05 10:51:49;;;;;;;12.30;6.85;;;;;;;32.39;41.07;101027.31;4892447;29;20562;-79
2023/07/05 10:54:45;;;;;;;10.40;6.72;;;;;;;32.36;40.47;100981.16;4920016;29;20122;-81
2023/07/05 10:57:36;;;;;;;10.77;7.55;;;;;;;32.61;40.41;101001.53;4894494;29;20062;-82
2023/07/05 11:00:28;;;;;;;17.75;8.07;;;;;;;32.96;39.25;101029.03;4895282;29;20043;-81
2023/07/05 11:03:16;;;;;;;12.30;7.07;;;;;;;33.23;39.09;101027.91;4920725;29;20055;-82
2023/07/05 11:05:49;;;;;;;14.25;7.78;;;;;;;33.35;38.77;101014.69;4907305;29;20106;-82
2023/07/05 11:08:26;;;;;;;9.35;6.88;;;;;;;33.05;38.83;100985.31;4903939;29;20048;-83
2023/07/05 11:10:58;;;;;;;10.05;7.40;;;;;;;33.44;39.06;101011.34;4905426;29;20325;-80
2023/07/05 11:13:30;;;;;;;10.27;6.65;;;;;;;32.99;38.94;100940.47;4921622;29;20067;-81
2023/07/05 11:16:01;;;;;;;10.35;7.57;;;;;;;33.41;39.07;101010.00;4911518;29;20052;-81
2023/07/05 11:18:31;;;;;;;11.25;7.40;;;;;;;33.45;38.60;101001.97;4923168;29;20044;-82
2023/07/05 11:21:02;;;;;;;8.75;7.28;;;;;;;33.45;38.59;100966.22;4926462;29;20478;-83
2023/07/05 11:23:48;;;;;;;14.20;7.97;;;;;;;33.41;37.80;100975.03;4920040;28;20051;-81
2023/07/05 11:26:38;;;;;;;12.13;7.32;;;;;;;33.25;37.84;100931.34;4923481;29;20043;-81
2023/07/05 11:29:28;;;;;;;10.75;7.53;;;;;;;33.56;38.36;100981.63;4919601;29;20086;-81
2023/07/05 11:32:02;;;;;;;13.75;8.35;;;;;;;33.14;38.44;100925.06;4944038;28;20051;-82
2023/07/05 11:34:32;;;;;;;14.32;8.27;;;;;;;33.73;39.02;100987.59;4931293;29;20055;-82
2023/07/05 11:37:02;;;;;;;12.20;8.20;;;;;;;33.93;38.30;100975.66;4913050;28;20063;-80
2023/07/05 11:39:45;;;;;;;9.95;7.05;;;;;;;34.35;37.33;100981.75;4909641;29;20646;-81
2023/07/05 11:42:13;;;;;;;11.30;7.60;;;;;;;34.10;37.67;100949.69;4929820;29;20333;-81
2023/07/05 11:44:48;;;;;;;10.65;7.90;;;;;;;33.47;37.37;100846.50;4945703;28;20055;-81
2023/07/05 11:47:24;;;;;;;15.55;8.10;;;;;;;34.08;37.48;100971.16;4927997;29;20059;-82